Time;durP1;ratioP1;P1;durP2;ratioP2;P2;SDS_P1;SDS_P2;PMS_P1;PMS_P2;Temp;Humidity;BMP_temperature;BMP_pressure;BME280_temperature;BME280_humidity;BME280_pressure;Samples;Min_cycle;Max_cycle;Signal;HPM_P1;HPM_P2
2021/06/11 00:02:24;;;;;;;2.50;2.40;;;25.70;76.70;;;;;;4976912;28;21077;-87
2021/06/11 00:04:52;;;;;;;2.50;2.40;;;25.70;76.70;;;;;;4976916;28;20481;-92
2021/06/11 00:07:18;;;;;;;2.30;2.20;;;25.70;76.80;;;;;;4976952;28;20951;-87
2021/06/11 00:09:44;;;;;;;2.80;2.60;;;25.70;76.70;;;;;;4976823;28;21022;-87
2021/06/11 00:12:14;;;;;;;3.00;2.80;;;25.70;76.70;;;;;;4976621;28;20487;-88
2021/06/11 00:14:40;;;;;;;2.30;2.20;;;25.70;76.60;;;;;;4976740;28;20456;-87
2021/06/11 00:17:07;;;;;;;2.57;2.47;;;25.60;76.60;;;;;;4976329;28;20446;-87
2021/06/11 00:19:34;;;;;;;2.83;2.63;;;25.70;76.70;;;;;;4976710;28;20505;-87
2021/06/11 00:22:01;;;;;;;2.30;2.20;;;25.70;76.60;;;;;;4976442;28;20510;-87
2021/06/11 00:24:28;;;;;;;2.70;2.60;;;25.70;76.60;;;;;;4976558;28;20471;-87
2021/06/11 00:26:54;;;;;;;2.77;2.67;;;25.70;76.60;;;;;;4976422;28;20443;-87
2021/06/11 00:29:20;;;;;;;2.50;2.40;;;25.60;76.50;;;;;;4976466;28;20453;-87
2021/06/11 00:31:47;;;;;;;2.90;2.80;;;25.70;76.60;;;;;;4976400;28;20449;-88
2021/06/11 00:34:13;;;;;;;2.70;2.60;;;25.60;76.50;;;;;;4976456;28;20807;-88
2021/06/11 00:36:40;;;;;;;2.70;2.60;;;25.60;76.50;;;;;;4976284;28;20444;-87
2021/06/11 00:39:07;;;;;;;2.47;2.37;;;25.60;76.50;;;;;;4976355;28;20535;-87
2021/06/11 00:41:34;;;;;;;2.37;2.27;;;25.70;76.60;;;;;;4976061;28;20457;-87
2021/06/11 00:44:00;;;;;;;2.50;2.30;;;25.70;76.60;;;;;;4976228;28;20453;-87
2021/06/11 00:46:26;;;;;;;2.67;2.57;;;25.60;76.50;;;;;;4976197;28;20445;-87
2021/06/11 00:48:53;;;;;;;2.30;2.20;;;25.60;76.50;;;;;;4976199;28;20454;-87
2021/06/11 00:51:21;;;;;;;2.80;2.60;;;25.70;76.60;;;;;;4976192;28;20456;-87
2021/06/11 00:53:48;;;;;;;2.60;2.50;;;25.60;76.50;;;;;;4976109;28;20475;-87
2021/06/11 00:56:16;;;;;;;2.13;2.03;;;25.60;76.50;;;;;;4975853;28;20472;-87
2021/06/11 00:58:43;;;;;;;2.50;2.40;;;25.70;76.60;;;;;;4976027;28;20452;-87
2021/06/11 01:01:09;;;;;;;3.10;2.90;;;25.60;76.40;;;;;;4975982;28;20470;-87
2021/06/11 01:03:35;;;;;;;2.57;2.47;;;25.60;76.40;;;;;;4975656;28;20541;-91
2021/06/11 01:06:02;;;;;;;2.40;2.30;;;25.60;76.50;;;;;;4975886;28;20436;-87
2021/06/11 01:08:28;;;;;;;2.40;2.30;;;25.60;76.40;;;;;;4976027;28;20562;-91
2021/06/11 01:10:56;;;;;;;2.30;2.20;;;25.60;76.50;;;;;;4975461;28;20491;-87
2021/06/11 01:13:25;;;;;;;2.60;2.40;;;25.60;76.50;;;;;;4975681;28;20576;-87
2021/06/11 01:15:52;;;;;;;2.50;2.40;;;25.60;76.40;;;;;;4975512;28;20850;-87
2021/06/11 01:18:20;;;;;;;2.50;2.40;;;25.60;76.50;;;;;;4975665;28;20480;-87
2021/06/11 01:20:47;;;;;;;2.27;2.17;;;25.60;76.50;;;;;;4975503;28;20448;-87
2021/06/11 01:23:56;;;;;;;2.57;2.47;;;25.60;76.50;;;;;;4975475;28;20586;-87
2021/06/11 01:26:26;;;;;;;2.70;2.60;;;25.60;76.40;;;;;;4975388;28;20471;-92
2021/06/11 01:28:54;;;;;;;2.23;2.13;;;25.60;76.60;;;;;;4975407;28;20805;-87
2021/06/11 01:31:21;;;;;;;2.40;2.30;;;25.60;76.50;;;;;;4975320;28;20440;-87
2021/06/11 01:33:53;;;;;;;2.13;2.03;;;25.60;76.50;;;;;;4975331;28;20456;-92
2021/06/11 01:36:24;;;;;;;2.10;2.00;;;25.60;76.50;;;;;;4975162;28;20447;-87
2021/06/11 01:38:53;;;;;;;2.53;2.43;;;25.60;76.50;;;;;;4974983;28;20452;-87
2021/06/11 01:41:21;;;;;;;2.77;2.57;;;25.60;76.50;;;;;;4974987;28;20460;-87
2021/06/11 01:43:52;;;;;;;2.37;2.27;;;25.60;76.50;;;;;;4975161;28;20519;-87
2021/06/11 01:46:22;;;;;;;2.27;2.17;;;25.60;76.60;;;;;;4975061;28;20813;-87
2021/06/11 01:48:49;;;;;;;2.70;2.43;;;25.70;76.60;;;;;;4975113;28;20443;-87
2021/06/11 01:51:16;;;;;;;2.60;2.40;;;25.60;76.50;;;;;;4975091;28;20454;-87
2021/06/11 01:53:44;;;;;;;2.20;2.10;;;25.60;77.40;;;;;;4975104;28;20522;-92
2021/06/11 01:56:13;;;;;;;2.37;2.27;;;25.60;76.50;;;;;;4974867;28;20440;-91
2021/06/11 01:58:41;;;;;;;2.97;2.77;;;25.60;76.60;;;;;;4974988;28;20468;-87
2021/06/11 02:01:10;;;;;;;2.30;2.20;;;25.60;76.50;;;;;;4974835;28;20519;-87
2021/06/11 02:03:38;;;;;;;2.60;2.50;;;25.60;76.60;;;;;;4974704;28;21032;-87
2021/06/11 02:06:05;;;;;;;2.40;2.30;;;25.60;76.50;;;;;;4974842;28;20452;-93
2021/06/11 02:08:32;;;;;;;2.47;2.37;;;25.60;76.50;;;;;;4974814;28;20451;-90
2021/06/11 02:10:59;;;;;;;2.87;2.67;;;25.60;76.60;;;;;;4974425;28;20543;-87
2021/06/11 02:13:27;;;;;;;2.60;2.50;;;25.60;76.60;;;;;;4974645;28;20869;-87
2021/06/11 02:15:54;;;;;;;2.47;2.27;;;25.60;76.60;;;;;;4974608;28;20877;-87
2021/06/11 02:18:23;;;;;;;2.40;2.30;;;25.60;76.60;;;;;;4974846;28;20444;-87
2021/06/11 02:20:52;;;;;;;3.00;2.80;;;25.60;76.60;;;;;;4974547;28;20458;-87
2021/06/11 02:23:18;;;;;;;2.70;2.60;;;25.60;76.60;;;;;;4974474;28;20493;-87
2021/06/11 02:25:45;;;;;;;2.60;2.47;;;25.60;76.60;;;;;;4974677;28;20454;-87
2021/06/11 02:28:15;;;;;;;2.63;2.43;;;25.60;76.60;;;;;;4978602;28;20444;-87
2021/06/11 02:30:41;;;;;;;2.60;2.40;;;25.60;76.60;;;;;;4975876;28;20452;-87
2021/06/11 02:33:08;;;;;;;2.20;2.10;;;25.60;76.60;;;;;;4974974;28;20462;-86
2021/06/11 02:35:36;;;;;;;2.47;2.30;;;25.60;76.60;;;;;;4975539;28;20495;-87
2021/06/11 02:38:02;;;;;;;2.93;2.73;;;25.60;76.70;;;;;;4976632;28;20447;-92
2021/06/11 02:40:28;;;;;;;3.00;2.90;;;25.60;76.60;;;;;;4975816;28;20453;-87
2021/06/11 02:42:59;;;;;;;2.40;2.30;;;25.60;76.60;;;;;;4974435;28;20500;-87
2021/06/11 02:45:29;;;;;;;2.63;2.53;;;25.60;76.60;;;;;;4974465;28;20799;-87
2021/06/11 02:48:06;;;;;;;2.37;2.27;;;25.60;76.60;;;;;;4974863;28;20451;-86
2021/06/11 02:50:39;;;;;;;2.43;2.33;;;25.60;76.60;;;;;;4977769;28;20440;-87
2021/06/11 02:53:09;;;;;;;2.50;2.37;;;25.60;76.70;;;;;;4978638;28;20936;-87
2021/06/11 02:55:37;;;;;;;2.40;2.30;;;25.60;76.70;;;;;;4978159;28;20498;-87
2021/06/11 02:58:10;;;;;;;2.47;2.27;;;25.60;76.70;;;;;;4978218;28;20449;-88
2021/06/11 03:00:38;;;;;;;2.60;2.40;;;25.60;76.70;;;;;;4978161;28;20502;-87
2021/06/11 03:03:10;;;;;;;2.40;2.30;;;25.60;76.70;;;;;;4978242;28;20491;-87
2021/06/11 03:05:39;;;;;;;2.23;2.13;;;25.60;76.70;;;;;;4978118;28;20447;-87
2021/06/11 03:08:10;;;;;;;2.53;2.43;;;25.60;76.80;;;;;;4978066;28;20456;-87
2021/06/11 03:10:37;;;;;;;2.87;2.67;;;25.60;76.70;;;;;;4977667;28;20552;-87
2021/06/11 03:13:04;;;;;;;2.50;2.40;;;25.50;76.60;;;;;;4978050;28;20534;-92
2021/06/11 03:15:33;;;;;;;2.50;2.40;;;25.60;76.80;;;;;;4977809;28;20506;-87
2021/06/11 03:18:02;;;;;;;2.50;2.40;;;25.50;76.70;;;;;;4977908;28;20456;-87
2021/06/11 03:20:34;;;;;;;2.47;2.37;;;25.60;76.80;;;;;;4977656;28;20452;-87
2021/06/11 03:23:05;;;;;;;2.70;2.60;;;25.60;76.80;;;;;;4977732;28;21035;-87
2021/06/11 03:25:36;;;;;;;2.40;2.20;;;25.60;76.80;;;;;;4977749;28;20454;-88
2021/06/11 03:28:08;;;;;;;2.43;2.33;;;25.50;76.80;;;;;;4977724;28;20451;-86
2021/06/11 03:30:35;;;;;;;2.73;2.60;;;25.50;76.70;;;;;;4977734;28;20455;-90
2021/06/11 03:33:07;;;;;;;2.17;2.07;;;25.50;76.80;;;;;;4977582;28;20444;-87
2021/06/11 03:35:36;;;;;;;2.70;2.50;;;25.60;76.80;;;;;;4977577;28;20446;-92
2021/06/11 03:38:08;;;;;;;2.30;2.20;;;25.50;76.70;;;;;;4977538;28;20443;-87
2021/06/11 03:40:38;;;;;;;2.67;2.53;;;25.50;76.70;;;;;;4977575;28;20442;-87
2021/06/11 03:43:04;;;;;;;1.90;1.80;;;25.50;76.80;;;;;;4977428;28;20490;-93
2021/06/11 03:45:31;;;;;;;3.10;2.90;;;25.50;76.80;;;;;;4977241;28;20440;-87
2021/06/11 03:48:00;;;;;;;2.63;2.47;;;25.50;76.80;;;;;;4977294;28;20444;-87
2021/06/11 03:50:28;;;;;;;2.40;2.30;;;25.50;76.80;;;;;;4977364;28;20522;-87
2021/06/11 03:52:58;;;;;;;2.50;2.40;;;25.50;76.80;;;;;;4977275;28;20444;-87
2021/06/11 03:55:29;;;;;;;2.73;2.53;;;25.50;76.80;;;;;;4976964;28;20458;-87
2021/06/11 03:57:59;;;;;;;2.30;2.20;;;25.50;76.80;;;;;;4977267;28;20943;-92
2021/06/11 04:00:27;;;;;;;2.53;2.40;;;25.50;76.80;;;;;;4976554;28;20509;-87
2021/06/11 04:02:53;;;;;;;2.10;2.00;;;25.50;77.60;;;;;;4978942;28;20542;-87
2021/06/11 04:05:20;;;;;;;2.33;2.13;;;25.50;76.80;;;;;;4978908;28;20455;-87
2021/06/11 04:07:52;;;;;;;2.70;2.53;;;25.50;76.80;;;;;;4979035;28;20436;-87
2021/06/11 04:10:24;;;;;;;3.07;2.80;;;25.50;76.80;;;;;;4976929;28;20443;-87
2021/06/11 04:12:55;;;;;;;2.97;2.30;;;25.50;77.70;;;;;;4976985;28;20444;-87
2021/06/11 04:15:22;;;;;;;2.47;2.37;;;25.50;76.90;;;;;;4976667;28;20516;-87
2021/06/11 04:17:53;;;;;;;2.00;1.90;;;25.50;76.80;;;;;;4976772;28;20444;-87
2021/06/11 04:20:22;;;;;;;2.40;2.20;;;25.50;76.80;;;;;;4976905;28;20520;-87
2021/06/11 04:22:50;;;;;;;2.77;2.57;;;25.50;76.80;;;;;;4976675;28;20582;-87
2021/06/11 04:25:18;;;;;;;2.40;2.30;;;25.50;76.90;;;;;;4977056;28;20440;-87
2021/06/11 04:27:49;;;;;;;2.63;2.43;;;25.50;76.90;;;;;;4977075;28;20490;-87
2021/06/11 04:30:17;;;;;;;2.93;2.20;;;25.60;77.00;;;;;;4976777;28;20546;-87
2021/06/11 04:32:44;;;;;;;2.17;2.07;;;25.50;76.90;;;;;;4976564;28;20810;-87
2021/06/11 04:35:10;;;;;;;2.33;2.23;;;25.50;76.90;;;;;;4976428;28;20444;-86
2021/06/11 04:37:38;;;;;;;2.83;2.73;;;25.50;76.90;;;;;;4976878;28;20476;-87
2021/06/11 04:40:07;;;;;;;2.40;2.30;;;25.50;76.90;;;;;;4976474;28;20450;-87
2021/06/11 04:42:34;;;;;;;2.40;2.30;;;25.50;77.00;;;;;;4976211;28;20500;-87
2021/06/11 04:45:00;;;;;;;2.53;2.40;;;25.50;77.00;;;;;;4976358;28;20509;-87
2021/06/11 04:47:29;;;;;;;2.60;2.50;;;25.50;77.00;;;;;;4976403;28;20590;-87
2021/06/11 04:49:56;;;;;;;2.70;2.50;;;25.50;77.10;;;;;;4976415;28;20455;-87
2021/06/11 04:52:22;;;;;;;2.53;2.43;;;25.50;77.10;;;;;;4976145;28;20527;-87
2021/06/11 04:54:48;;;;;;;2.50;2.40;;;25.50;77.10;;;;;;4976480;28;20532;-87
2021/06/11 04:57:15;;;;;;;2.43;2.33;;;25.50;77.10;;;;;;4981816;28;20462;-87
2021/06/11 04:59:42;;;;;;;3.00;2.80;;;25.50;77.10;;;;;;4996041;28;20448;-88
2021/06/11 05:02:08;;;;;;;2.27;2.13;;;25.50;77.10;;;;;;4995639;28;20447;-86
2021/06/11 05:04:36;;;;;;;2.77;2.63;;;25.50;77.20;;;;;;4995364;28;20458;-87
2021/06/11 05:07:03;;;;;;;3.13;2.80;;;25.50;77.20;;;;;;4995361;28;20943;-87
2021/06/11 05:09:29;;;;;;;2.57;2.47;;;25.50;77.20;;;;;;4995218;28;20459;-86
2021/06/11 05:11:56;;;;;;;2.90;2.67;;;25.50;77.20;;;;;;4994311;28;20512;-87
2021/06/11 05:14:22;;;;;;;3.30;3.00;;;25.50;77.20;;;;;;4995122;28;20546;-87
2021/06/11 05:16:49;;;;;;;2.57;2.37;;;25.50;77.30;;;;;;4995114;28;20938;-87
2021/06/11 05:19:15;;;;;;;2.60;2.50;;;25.50;77.30;;;;;;4995115;28;20469;-89
2021/06/11 05:21:43;;;;;;;2.47;2.37;;;25.50;77.30;;;;;;4994911;28;20950;-89
2021/06/11 05:24:10;;;;;;;2.40;2.30;;;25.50;77.30;;;;;;4994882;28;20493;-89
2021/06/11 05:26:36;;;;;;;2.47;2.37;;;25.50;77.30;;;;;;4995060;28;20447;-93
2021/06/11 05:29:03;;;;;;;2.47;2.27;;;25.50;77.30;;;;;;4995111;28;20440;-88
2021/06/11 05:31:29;;;;;;;2.90;2.70;;;25.50;77.30;;;;;;4994890;28;20457;-89
2021/06/11 05:33:56;;;;;;;2.77;2.67;;;25.50;77.30;;;;;;4995023;28;20447;-93
2021/06/11 05:36:22;;;;;;;2.80;2.70;;;25.50;77.30;;;;;;4996461;28;20849;-90
2021/06/11 05:38:50;;;;;;;3.13;2.93;;;25.50;77.40;;;;;;4995408;28;20454;-89
2021/06/11 05:41:16;;;;;;;3.00;2.80;;;25.50;77.40;;;;;;4994755;28;20559;-89
2021/06/11 05:43:44;;;;;;;3.00;2.70;;;25.50;77.30;;;;;;4995209;28;20490;-89
2021/06/11 05:46:11;;;;;;;3.50;2.37;;;25.50;77.40;;;;;;4995153;28;20958;-89
2021/06/11 05:48:39;;;;;;;2.77;2.57;;;25.50;77.40;;;;;;4996217;28;20443;-92
2021/06/11 05:51:06;;;;;;;2.83;2.63;;;25.50;77.50;;;;;;4996018;28;20448;-88
2021/06/11 05:53:32;;;;;;;3.10;2.90;;;25.50;77.40;;;;;;4995955;28;20471;-93
2021/06/11 05:56:01;;;;;;;2.30;2.20;;;25.50;77.50;;;;;;4996653;28;20937;-89
2021/06/11 05:58:27;;;;;;;3.03;2.83;;;25.50;77.50;;;;;;4995248;28;20454;-88
2021/06/11 06:00:54;;;;;;;3.03;2.83;;;25.50;77.50;;;;;;4996133;28;20465;-91
2021/06/11 06:03:20;;;;;;;3.20;3.00;;;25.50;77.40;;;;;;4995928;28;21015;-88
2021/06/11 06:05:47;;;;;;;3.10;2.80;;;25.50;77.50;;;;;;4994563;28;20434;-93
2021/06/11 06:08:13;;;;;;;3.33;3.13;;;25.50;77.50;;;;;;4994492;28;20453;-91
2021/06/11 06:10:40;;;;;;;2.53;2.33;;;25.50;77.50;;;;;;4994110;28;20918;-89
2021/06/11 06:13:08;;;;;;;2.57;2.47;;;25.50;77.50;;;;;;4994298;28;20527;-90
2021/06/11 06:15:34;;;;;;;3.00;2.80;;;25.50;77.50;;;;;;4995474;28;20798;-88
2021/06/11 06:18:00;;;;;;;3.10;2.90;;;25.50;77.60;;;;;;4994257;28;20794;-89
2021/06/11 06:20:27;;;;;;;3.27;3.07;;;25.50;77.50;;;;;;4994177;28;20508;-89
2021/06/11 06:22:53;;;;;;;3.10;2.90;;;25.50;77.60;;;;;;4993859;28;20574;-89
2021/06/11 06:25:20;;;;;;;2.50;2.40;;;25.50;77.60;;;;;;4994111;28;20445;-89
2021/06/11 06:27:46;;;;;;;2.83;2.63;;;25.50;77.60;;;;;;4994116;28;20454;-89
2021/06/11 06:30:15;;;;;;;2.90;2.70;;;25.50;77.70;;;;;;4994384;28;20542;-89
2021/06/11 06:32:42;;;;;;;2.37;2.27;;;25.50;78.50;;;;;;4994014;28;20454;-92
2021/06/11 06:35:11;;;;;;;3.10;2.90;;;25.50;77.60;;;;;;4994044;28;20446;-91
2021/06/11 06:37:37;;;;;;;2.90;2.80;;;25.50;77.60;;;;;;4993968;28;20452;-90
2021/06/11 06:40:06;;;;;;;2.73;2.63;;;25.50;77.60;;;;;;4993911;28;20472;-89
2021/06/11 06:42:33;;;;;;;2.67;2.57;;;25.50;77.60;;;;;;4993779;28;20487;-89
2021/06/11 06:44:59;;;;;;;2.50;2.40;;;25.50;77.70;;;;;;4993846;28;20454;-90
2021/06/11 06:47:27;;;;;;;2.67;2.47;;;25.50;77.60;;;;;;4994187;28;20442;-93
2021/06/11 06:49:53;;;;;;;2.20;2.10;;;25.50;77.50;;;;;;4994155;28;20440;-93
2021/06/11 06:52:20;;;;;;;2.23;2.13;;;25.50;77.60;;;;;;4994013;28;21067;-89
2021/06/11 06:54:46;;;;;;;2.03;1.93;;;25.50;77.50;;;;;;4993933;28;20446;-89
2021/06/11 06:57:12;;;;;;;2.20;2.10;;;25.50;77.50;;;;;;4993873;28;20530;-93
2021/06/11 06:59:39;;;;;;;2.80;2.60;;;25.50;77.50;;;;;;4993941;28;20450;-89
2021/06/11 07:02:06;;;;;;;2.40;2.30;;;25.50;77.50;;;;;;4993763;28;20454;-89
2021/06/11 07:04:33;;;;;;;2.43;2.23;;;25.50;77.50;;;;;;4993548;28;20989;-89
2021/06/11 07:07:00;;;;;;;2.30;2.20;;;25.50;78.30;;;;;;4993655;28;20531;-89
2021/06/11 07:09:28;;;;;;;2.30;2.20;;;25.50;77.50;;;;;;4993849;28;20534;-93
2021/06/11 07:11:54;;;;;;;2.90;2.70;;;25.50;77.50;;;;;;4993426;28;20890;-93
2021/06/11 07:14:23;;;;;;;2.63;2.53;;;25.50;78.30;;;;;;4993599;28;20451;-89
2021/06/11 07:16:49;;;;;;;2.73;2.53;;;25.50;77.50;;;;;;4993467;28;20553;-89
2021/06/11 07:19:15;;;;;;;2.30;2.20;;;25.50;77.40;;;;;;4993543;28;20504;-89
2021/06/11 07:21:43;;;;;;;2.03;1.93;;;25.50;77.40;;;;;;4993767;28;20436;-93
2021/06/11 07:24:10;;;;;;;1.97;1.87;;;25.50;77.30;;;;;;4994436;28;20994;-94
2021/06/11 07:26:37;;;;;;;2.20;2.10;;;25.50;77.40;;;;;;4999326;28;20442;-89
2021/06/11 07:29:04;;;;;;;2.47;2.37;;;25.50;77.40;;;;;;4998036;28;20454;-89
2021/06/11 07:31:30;;;;;;;2.13;2.03;;;25.50;77.40;;;;;;4997789;28;20424;-87
2021/06/11 07:33:56;;;;;;;2.33;2.23;;;25.50;77.40;;;;;;4993557;28;20450;-93
2021/06/11 07:36:23;;;;;;;2.43;2.30;;;25.50;77.40;;;;;;4995593;28;20471;-89
2021/06/11 07:38:51;;;;;;;2.10;2.00;;;25.50;77.30;;;;;;4997134;28;20444;-89
2021/06/11 07:41:17;;;;;;;2.37;2.27;;;25.50;77.30;;;;;;4996896;28;20473;-88
2021/06/11 07:43:44;;;;;;;2.00;1.90;;;25.50;77.40;;;;;;4996825;28;20849;-87
2021/06/11 07:46:10;;;;;;;2.40;2.30;;;25.50;77.30;;;;;;4997142;28;20550;-88
2021/06/11 07:48:37;;;;;;;1.93;1.80;;;25.50;77.30;;;;;;4997074;28;20949;-88
2021/06/11 07:51:03;;;;;;;2.10;1.90;;;25.60;77.40;;;;;;4996845;28;20965;-87
2021/06/11 07:53:30;;;;;;;2.00;1.90;;;25.50;77.30;;;;;;4996879;28;20439;-92
2021/06/11 07:55:57;;;;;;;2.10;1.90;;;25.50;77.30;;;;;;4996871;28;20504;-88
2021/06/11 07:58:24;;;;;;;2.00;1.90;;;25.50;77.20;;;;;;4996755;28;21030;-91
2021/06/11 08:00:50;;;;;;;1.90;1.80;;;25.50;77.20;;;;;;4996746;28;20448;-88
2021/06/11 08:03:16;;;;;;;2.00;1.90;;;25.50;77.20;;;;;;4996438;28;20489;-88
2021/06/11 08:05:42;;;;;;;2.40;2.30;;;25.50;77.20;;;;;;4996739;28;20450;-88
2021/06/11 08:08:09;;;;;;;2.00;1.90;;;25.50;77.20;;;;;;4996511;28;20551;-88
2021/06/11 08:10:36;;;;;;;1.83;1.73;;;25.50;77.10;;;;;;4996364;28;20483;-88
2021/06/11 08:13:05;;;;;;;2.30;2.13;;;25.50;77.10;;;;;;4996256;28;20457;-88
2021/06/11 08:15:32;;;;;;;1.57;1.47;;;25.50;77.20;;;;;;4996144;28;20497;-88
2021/06/11 08:17:58;;;;;;;2.00;1.90;;;25.50;77.10;;;;;;4996325;28;21025;-88
2021/06/11 08:20:25;;;;;;;2.03;1.93;;;25.50;77.10;;;;;;4996314;28;20497;-88
2021/06/11 08:22:51;;;;;;;2.00;1.90;;;25.50;77.20;;;;;;4996051;28;20974;-87
2021/06/11 08:25:18;;;;;;;1.73;1.63;;;25.50;77.20;;;;;;4996439;28;20455;-88
2021/06/11 08:27:44;;;;;;;1.93;1.83;;;25.50;77.10;;;;;;4996285;28;20457;-88
2021/06/11 08:30:13;;;;;;;1.77;1.67;;;25.60;77.20;;;;;;4996245;28;20944;-88
2021/06/11 08:32:40;;;;;;;2.00;1.90;;;25.50;77.10;;;;;;4996059;28;20541;-88
2021/06/11 08:35:08;;;;;;;1.90;1.80;;;25.50;77.10;;;;;;4996052;28;20450;-88
2021/06/11 08:37:34;;;;;;;2.27;2.07;;;25.60;77.20;;;;;;4996016;28;20444;-88
2021/06/11 08:40:02;;;;;;;1.90;1.80;;;25.50;77.10;;;;;;4995974;28;20442;-88
2021/06/11 08:42:30;;;;;;;1.97;1.87;;;25.60;77.10;;;;;;4995771;28;20466;-92
2021/06/11 08:44:59;;;;;;;2.03;1.93;;;25.60;77.10;;;;;;4995771;28;20451;-87
2021/06/11 08:47:28;;;;;;;2.13;2.03;;;25.60;77.20;;;;;;4995737;28;20490;-88
2021/06/11 08:49:55;;;;;;;1.73;1.63;;;25.60;77.10;;;;;;4995646;28;20443;-88
2021/06/11 08:52:21;;;;;;;1.73;1.63;;;25.60;77.10;;;;;;4995569;28;20480;-88
2021/06/11 08:54:49;;;;;;;1.60;1.50;;;25.60;77.00;;;;;;4995662;28;20440;-88
2021/06/11 08:57:17;;;;;;;1.90;1.80;;;25.60;77.00;;;;;;4995713;28;20443;-89
2021/06/11 08:59:45;;;;;;;1.90;1.80;;;25.60;77.00;;;;;;4995733;28;20450;-88
2021/06/11 09:02:12;;;;;;;1.97;1.87;;;25.60;77.00;;;;;;4995997;28;20451;-89
2021/06/11 09:04:45;;;;;;;2.07;1.97;;;25.60;77.00;;;;;;4995487;28;20491;-88
2021/06/11 09:07:24;;;;;;;1.60;1.50;;;25.60;77.00;;;;;;4995873;28;21026;-88
2021/06/11 09:09:52;;;;;;;1.70;1.60;;;25.60;76.80;;;;;;4995840;28;20446;-88
2021/06/11 09:12:36;;;;;;;1.63;1.53;;;25.50;76.90;;;;;;4995020;28;20561;-88
2021/06/11 09:15:06;;;;;;;1.70;1.60;;;25.60;76.90;;;;;;4995254;28;20453;-88
2021/06/11 09:17:34;;;;;;;1.40;1.30;;;25.50;76.90;;;;;;4995121;28;20787;-88
2021/06/11 09:20:14;;;;;;;1.87;1.77;;;25.50;76.80;;;;;;4995185;28;20499;-88
2021/06/11 09:22:46;;;;;;;1.63;1.53;;;25.60;76.90;;;;;;4994908;28;20569;-88
2021/06/11 09:25:24;;;;;;;1.87;1.77;;;25.50;76.80;;;;;;4995348;28;20500;-88
2021/06/11 09:27:52;;;;;;;2.60;2.23;;;25.60;76.90;;;;;;4995065;28;20445;-89
2021/06/11 09:30:18;;;;;;;1.73;1.63;;;25.50;76.80;;;;;;5001330;28;20516;-87
2021/06/11 09:32:55;;;;;;;1.80;1.70;;;25.50;76.80;;;;;;4997209;28;20464;-89
2021/06/11 09:35:34;;;;;;;1.80;1.70;;;25.60;77.30;;;;;;4995078;28;20478;-93
2021/06/11 09:38:11;;;;;;;1.93;1.83;;;25.60;76.80;;;;;;4994772;28;20810;-88
2021/06/11 09:40:37;;;;;;;1.67;1.57;;;25.60;76.90;;;;;;4995179;28;20694;-89
2021/06/11 09:43:05;;;;;;;1.73;1.63;;;25.50;76.80;;;;;;4994607;28;20479;-88
2021/06/11 09:45:32;;;;;;;1.50;1.40;;;25.50;76.80;;;;;;4994588;28;20447;-88
2021/06/11 09:48:18;;;;;;;1.77;1.67;;;25.50;76.80;;;;;;4961746;28;20459;-92
2021/06/11 09:50:50;;;;;;;1.90;1.80;;;25.60;76.80;;;;;;4994555;28;20443;-88
2021/06/11 09:53:17;;;;;;;1.70;1.60;;;25.50;76.80;;;;;;4994523;28;20458;-88
2021/06/11 09:55:46;;;;;;;1.80;1.70;;;25.60;76.90;;;;;;4994323;28;20451;-88
2021/06/11 09:58:15;;;;;;;1.80;1.70;;;25.60;76.80;;;;;;4994113;28;20506;-88
2021/06/11 10:00:47;;;;;;;1.70;1.60;;;25.60;76.90;;;;;;4994404;28;20815;-93
2021/06/11 10:03:16;;;;;;;1.70;1.60;;;25.60;76.80;;;;;;4994157;28;20851;-88
2021/06/11 10:05:43;;;;;;;1.90;1.67;;;25.60;76.80;;;;;;4994271;28;20958;-88
2021/06/11 10:08:12;;;;;;;1.70;1.60;;;25.60;76.90;;;;;;4994341;28;20449;-88
2021/06/11 10:10:40;;;;;;;1.70;1.60;;;25.60;76.90;;;;;;4993732;28;20517;-88
2021/06/11 10:13:08;;;;;;;1.90;1.80;;;25.60;76.90;;;;;;4994185;28;20440;-88
2021/06/11 10:15:34;;;;;;;1.40;1.30;;;25.60;76.90;;;;;;4994258;28;20445;-88
2021/06/11 10:18:02;;;;;;;1.63;1.53;;;25.60;76.90;;;;;;4993998;28;20501;-88
2021/06/11 10:20:29;;;;;;;1.57;1.47;;;25.60;76.80;;;;;;4994060;28;20448;-88
2021/06/11 10:22:55;;;;;;;1.77;1.50;;;25.60;76.80;;;;;;4993948;28;20498;-92
2021/06/11 10:25:24;;;;;;;1.63;1.53;;;25.60;76.80;;;;;;4994393;28;20449;-88
2021/06/11 10:27:51;;;;;;;2.13;2.03;;;25.60;76.90;;;;;;4995066;28;20447;-88
2021/06/11 10:30:19;;;;;;;1.87;1.77;;;25.60;76.90;;;;;;4994090;28;20871;-88
2021/06/11 10:32:48;;;;;;;1.60;1.50;;;25.60;76.90;;;;;;4993842;28;20947;-88
2021/06/11 10:35:42;;;;;;;1.80;1.70;;;25.60;76.90;;;;;;4993911;28;20799;-88
2021/06/11 10:38:29;;;;;;;1.67;1.57;;;25.60;76.90;;;;;;4993785;28;20528;-87
2021/06/11 10:40:58;;;;;;;2.17;2.07;;;25.60;77.00;;;;;;4993895;28;20533;-88
2021/06/11 10:43:28;;;;;;;2.03;1.93;;;25.60;77.00;;;;;;4993721;28;20489;-88
2021/06/11 10:45:56;;;;;;;1.87;1.77;;;25.60;77.00;;;;;;4993838;28;20547;-88
2021/06/11 10:48:23;;;;;;;1.97;1.87;;;25.60;77.00;;;;;;4994105;28;20450;-88
2021/06/11 10:50:50;;;;;;;1.80;1.70;;;25.60;77.00;;;;;;4993866;28;20450;-88
2021/06/11 10:53:29;;;;;;;1.57;1.47;;;25.60;77.00;;;;;;4993672;28;20502;-88
2021/06/11 10:56:15;;;;;;;2.10;2.00;;;25.60;77.00;;;;;;4993654;28;20459;-88
2021/06/11 10:58:44;;;;;;;2.10;2.00;;;25.60;76.90;;;;;;4993785;28;20807;-88
2021/06/11 11:01:28;;;;;;;1.80;1.70;;;25.60;77.00;;;;;;4993679;28;20444;-88
2021/06/11 11:03:56;;;;;;;2.00;1.90;;;25.60;76.90;;;;;;4993945;28;20494;-88
2021/06/11 11:06:28;;;;;;;1.80;1.70;;;25.60;77.00;;;;;;4993779;28;20478;-88
2021/06/11 11:08:56;;;;;;;1.53;1.43;;;25.60;77.00;;;;;;4994022;28;20442;-93
2021/06/11 11:11:42;;;;;;;1.70;1.60;;;25.60;77.00;;;;;;4995842;28;20883;-89
2021/06/11 11:14:41;;;;;;;1.90;1.80;;;25.60;76.90;;;;;;4997693;28;20448;-91
2021/06/11 11:17:09;;;;;;;1.70;1.60;;;25.60;77.00;;;;;;4997428;28;20450;-89
2021/06/11 11:19:54;;;;;;;2.47;2.30;;;25.60;77.00;;;;;;4997549;28;20550;-88
2021/06/11 11:22:34;;;;;;;2.00;1.90;;;25.60;77.00;;;;;;4997471;28;20851;-88
2021/06/11 11:25:12;;;;;;;2.00;1.90;;;25.60;77.00;;;;;;4997392;28;20493;-88
2021/06/11 11:27:40;;;;;;;1.90;1.80;;;25.60;77.10;;;;;;4997477;28;20962;-89
2021/06/11 11:30:07;;;;;;;1.73;1.63;;;25.60;77.10;;;;;;4997424;28;20440;-88
2021/06/11 11:32:34;;;;;;;2.10;2.00;;;25.60;77.10;;;;;;4996917;28;20466;-93
2021/06/11 11:35:00;;;;;;;1.90;1.80;;;25.60;77.00;;;;;;4997249;28;20453;-88
2021/06/11 11:37:26;;;;;;;1.93;1.83;;;25.60;77.10;;;;;;4997642;28;20465;-89
2021/06/11 11:39:53;;;;;;;2.10;2.00;;;25.60;77.10;;;;;;4997057;28;20446;-88
2021/06/11 11:42:20;;;;;;;2.00;1.90;;;25.60;77.10;;;;;;4997202;28;20516;-87
2021/06/11 11:44:47;;;;;;;1.83;1.73;;;25.60;77.10;;;;;;4996876;28;20498;-89
2021/06/11 11:47:14;;;;;;;2.10;2.00;;;25.60;77.90;;;;;;4997334;28;20545;-88
2021/06/11 11:49:41;;;;;;;2.23;2.13;;;25.60;77.00;;;;;;4998668;28;20444;-88
2021/06/11 11:52:07;;;;;;;2.30;2.20;;;25.60;77.00;;;;;;4997162;28;20520;-88
2021/06/11 11:54:34;;;;;;;2.20;2.10;;;25.60;77.00;;;;;;4996960;28;20439;-88
2021/06/11 11:57:01;;;;;;;1.93;1.83;;;25.60;77.00;;;;;;4996829;28;20453;-88
2021/06/11 11:59:27;;;;;;;2.60;2.40;;;25.60;77.00;;;;;;4996682;28;20436;-88
2021/06/11 12:01:55;;;;;;;2.10;2.00;;;25.60;77.00;;;;;;4996701;28;20443;-88
2021/06/11 12:04:23;;;;;;;2.07;1.97;;;25.60;77.00;;;;;;4996434;28;20488;-88
2021/06/11 12:06:50;;;;;;;2.20;2.10;;;25.60;77.90;;;;;;4996712;28;20447;-93
2021/06/11 12:09:16;;;;;;;2.10;2.00;;;25.60;77.00;;;;;;4996546;28;20508;-89
2021/06/11 12:11:43;;;;;;;2.00;1.90;;;25.60;77.00;;;;;;4996527;28;20485;-89
2021/06/11 12:14:09;;;;;;;2.60;2.43;;;25.60;77.00;;;;;;4997899;28;21016;-93
2021/06/11 12:16:36;;;;;;;2.17;2.07;;;25.60;77.00;;;;;;4997014;28;20448;-92
2021/06/11 12:19:04;;;;;;;2.00;1.90;;;25.60;77.00;;;;;;4997657;28;20443;-88
2021/06/11 12:21:31;;;;;;;2.10;2.00;;;25.60;77.00;;;;;;5007224;28;20454;-88
2021/06/11 12:23:57;;;;;;;1.90;1.80;;;25.60;77.00;;;;;;5006091;28;20487;-88
2021/06/11 12:26:23;;;;;;;2.30;2.20;;;25.60;76.90;;;;;;5010368;28;20430;-87
2021/06/11 12:28:49;;;;;;;2.07;1.97;;;25.60;76.90;;;;;;5002681;28;20439;-87
2021/06/11 12:31:16;;;;;;;2.20;2.10;;;25.60;77.00;;;;;;5000905;28;20534;-92
2021/06/11 12:33:42;;;;;;;2.13;2.03;;;25.60;76.90;;;;;;4999921;28;21026;-88
2021/06/11 12:36:10;;;;;;;2.10;2.00;;;25.60;77.00;;;;;;5000676;28;20485;-93
2021/06/11 12:38:37;;;;;;;2.27;2.10;;;25.60;76.90;;;;;;5000233;28;20447;-91
2021/06/11 12:41:06;;;;;;;2.87;2.67;;;25.60;76.90;;;;;;4996649;28;20955;-88
2021/06/11 12:46:17;;;;;;;2.00;1.90;;;25.60;77.00;;;;;;4956214;28;20435;-92
2021/06/11 12:48:44;;;;;;;2.23;2.03;;;25.60;77.00;;;;;;4996050;28;20435;-93
2021/06/11 12:51:11;;;;;;;2.03;1.93;;;25.60;77.00;;;;;;4995738;28;20444;-88
2021/06/11 12:53:38;;;;;;;2.23;2.10;;;25.70;77.00;;;;;;4995591;28;20451;-88
2021/06/11 12:56:07;;;;;;;2.13;2.03;;;25.60;76.90;;;;;;4995592;28;20459;-88
2021/06/11 12:58:33;;;;;;;2.30;2.20;;;25.70;77.00;;;;;;4995661;28;20452;-88